Time;durP1;ratioP1;P1;durP2;ratioP2;P2;SDS_P1;SDS_P2;PMS_P1;PMS_P2;Temp;Humidity;BMP_temperature;BMP_pressure;BME280_temperature;BME280_humidity;BME280_pressure;Samples;Min_cycle;Max_cycle;Signal;HPM_P1;HPM_P2
2021/08/31 00:02:08;;;;;;;;;17.25;15.25;;;;;-147.91;100.00;58652.34;5031485;28;45604;-81
2021/08/31 00:04:33;;;;;;;;;13.75;13.50;;;;;-147.91;100.00;58652.34;5037572;28;45532;-81
2021/08/31 00:06:59;;;;;;;;;16.75;12.00;;;;;-147.91;100.00;58652.34;5034506;28;45444;-81
2021/08/31 00:09:24;;;;;;;;;14.00;13.75;;;;;-147.91;100.00;58652.34;5028130;28;45586;-81
2021/08/31 00:11:50;;;;;;;;;11.00;11.00;;;;;-147.91;100.00;58652.34;5033373;28;45478;-81
2021/08/31 00:14:16;;;;;;;;;17.00;14.00;;;;;-147.91;100.00;58652.34;5029268;28;45663;-81
2021/08/31 00:16:41;;;;;;;;;15.25;10.50;;;;;-147.91;100.00;58652.34;5037745;28;45164;-81
2021/08/31 00:19:07;;;;;;;;;17.75;13.50;;;;;-147.91;100.00;58652.34;5033225;28;47027;-81
2021/08/31 00:21:32;;;;;;;;;12.00;11.00;;;;;-147.91;100.00;58652.34;5031959;28;45571;-81
2021/08/31 00:23:58;;;;;;;;;14.00;11.75;;;;;-147.91;100.00;58652.34;5037951;28;45073;-81
2021/08/31 00:26:23;;;;;;;;;14.00;12.75;;;;;-147.91;100.00;58652.34;5031636;28;45789;-81
2021/08/31 00:28:49;;;;;;;;;17.50;13.00;;;;;-147.91;100.00;58652.34;5034783;28;48065;-80
2021/08/31 00:31:14;;;;;;;;;17.00;14.50;;;;;-147.91;100.00;58652.34;5038821;28;46378;-81
2021/08/31 00:33:39;;;;;;;;;16.50;13.00;;;;;-147.91;100.00;58652.34;5042182;28;45879;-80
2021/08/31 00:36:05;;;;;;;;;15.00;12.00;;;;;-147.91;100.00;58652.34;5035772;28;45581;-81
2021/08/31 00:38:31;;;;;;;;;19.75;12.75;;;;;-147.91;100.00;58652.34;5037667;28;46121;-81
2021/08/31 00:40:58;;;;;;;;;15.25;13.00;;;;;-147.91;100.00;58652.34;5034124;28;45741;-81
2021/08/31 00:43:23;;;;;;;;;18.00;13.00;;;;;-147.91;100.00;58652.34;5037270;28;45869;-81
2021/08/31 00:45:49;;;;;;;;;23.25;14.25;;;;;-147.91;100.00;58652.34;5033175;28;45893;-81
2021/08/31 00:48:17;;;;;;;;;17.25;14.00;;;;;-147.91;100.00;58652.34;5034986;28;45777;-82
2021/08/31 00:50:44;;;;;;;;;20.75;17.50;;;;;-147.91;100.00;58652.34;5035463;28;45636;-82
2021/08/31 00:53:09;;;;;;;;;15.00;14.50;;;;;-147.91;100.00;58652.34;5036768;28;45532;-80
2021/08/31 00:55:35;;;;;;;;;16.50;13.00;;;;;-147.91;100.00;58652.34;5039013;28;45621;-81
2021/08/31 00:58:01;;;;;;;;;13.00;12.50;;;;;-147.91;100.00;58652.34;5031131;28;46507;-81
2021/08/31 01:00:26;;;;;;;;;16.25;14.25;;;;;-147.91;100.00;58652.34;5031598;28;45624;-81
2021/08/31 01:02:52;;;;;;;;;11.75;11.50;;;;;-147.91;100.00;58652.34;5034933;28;45530;-81
2021/08/31 01:05:17;;;;;;;;;15.75;13.50;;;;;-147.91;100.00;58652.34;5041199;28;45706;-81
2021/08/31 01:07:43;;;;;;;;;16.00;12.75;;;;;-147.91;100.00;58652.34;5036691;28;46299;-81
2021/08/31 01:10:09;;;;;;;;;16.75;13.50;;;;;-147.91;100.00;58652.34;5035220;28;45876;-81
2021/08/31 01:12:35;;;;;;;;;17.25;13.25;;;;;-147.91;100.00;58652.34;5031911;28;45552;-81
2021/08/31 01:15:01;;;;;;;;;19.00;14.75;;;;;-147.91;100.00;58652.34;5034648;28;45571;-81
2021/08/31 01:17:28;;;;;;;;;13.50;11.00;;;;;-147.91;100.00;58652.34;5036891;28;47077;-81
2021/08/31 01:19:54;;;;;;;;;17.25;12.75;;;;;-147.91;100.00;58652.34;5033556;28;45618;-82
2021/08/31 01:22:20;;;;;;;;;14.50;13.75;;;;;-147.91;100.00;58652.34;5039960;28;45551;-81
2021/08/31 01:24:47;;;;;;;;;19.50;12.00;;;;;-147.91;100.00;58652.34;5029834;28;45488;-81
2021/08/31 01:27:13;;;;;;;;;13.50;9.50;;;;;-147.91;100.00;58652.34;5036028;28;46446;-81
2021/08/31 01:29:39;;;;;;;;;14.25;13.00;;;;;-147.91;100.00;58652.34;5030002;28;48966;-81
2021/08/31 01:32:06;;;;;;;;;12.75;10.75;;;;;-147.91;100.00;58652.34;5032934;28;45548;-82
2021/08/31 01:34:32;;;;;;;;;14.00;9.50;;;;;-147.91;100.00;58652.34;5036197;28;45737;-80
2021/08/31 01:36:57;;;;;;;;;13.25;9.25;;;;;-147.91;100.00;58652.34;5035882;28;47108;-81
2021/08/31 01:39:23;;;;;;;;;12.25;9.25;;;;;-147.91;100.00;58652.34;5040989;28;45856;-80
2021/08/31 01:41:49;;;;;;;;;13.50;9.75;;;;;-147.91;100.00;58652.34;5042663;28;46327;-81
2021/08/31 01:44:14;;;;;;;;;13.25;10.00;;;;;-147.91;100.00;58652.34;5030600;28;46215;-82
2021/08/31 01:46:40;;;;;;;;;14.75;10.50;;;;;-147.91;100.00;58652.34;5035374;28;46161;-81
2021/08/31 01:49:05;;;;;;;;;10.50;8.25;;;;;-147.91;100.00;58652.34;5036181;28;45614;-81
2021/08/31 01:51:31;;;;;;;;;7.50;7.25;;;;;-147.91;100.00;58652.34;5036378;28;45821;-81
2021/08/31 01:53:56;;;;;;;;;10.50;8.00;;;;;-147.91;100.00;58652.34;5038292;28;45635;-81
2021/08/31 01:56:22;;;;;;;;;9.50;7.00;;;;;-147.91;100.00;58652.34;5034298;28;47153;-80
2021/08/31 01:58:47;;;;;;;;;9.00;8.00;;;;;-147.91;100.00;58652.34;5037331;28;45450;-82
2021/08/31 02:01:13;;;;;;;;;9.25;7.25;;;;;-147.91;100.00;58652.34;5035070;28;45679;-82
2021/08/31 02:03:38;;;;;;;;;9.00;7.00;;;;;-147.91;100.00;58652.34;5035255;28;45517;-81
2021/08/31 02:06:04;;;;;;;;;9.50;9.50;;;;;-147.91;100.00;58652.34;5033974;28;45715;-81
2021/08/31 02:08:29;;;;;;;;;11.50;8.75;;;;;-147.91;100.00;58652.34;5029622;28;45796;-81
2021/08/31 02:10:55;;;;;;;;;9.50;8.75;;;;;-147.91;100.00;58652.34;5038321;28;45547;-81
2021/08/31 02:13:20;;;;;;;;;10.25;9.00;;;;;-147.91;100.00;58652.34;5037915;28;47275;-81
2021/08/31 02:15:46;;;;;;;;;12.00;9.25;;;;;-147.91;100.00;58652.34;5033775;28;45770;-81
2021/08/31 02:18:11;;;;;;;;;11.50;10.00;;;;;-147.91;100.00;58652.34;5037411;28;46351;-81
2021/08/31 02:20:36;;;;;;;;;10.25;8.50;;;;;-147.91;100.00;58652.34;5034629;28;45540;-81
2021/08/31 02:23:03;;;;;;;;;11.00;8.00;;;;;-147.91;100.00;58652.34;5046484;28;46358;-81
2021/08/31 02:25:29;;;;;;;;;10.00;7.75;;;;;-147.91;100.00;58652.34;5040158;28;45605;-81
2021/08/31 02:27:54;;;;;;;;;8.25;8.25;;;;;-147.91;100.00;58652.34;5031870;28;46528;-81
2021/08/31 02:30:19;;;;;;;;;11.00;9.00;;;;;-147.91;100.00;58652.34;5037110;28;45579;-81
2021/08/31 02:32:46;;;;;;;;;8.75;7.00;;;;;-147.91;100.00;58652.34;5031783;28;45523;-80
2021/08/31 02:35:12;;;;;;;;;8.75;8.25;;;;;-147.91;100.00;58652.34;5030994;28;47376;-81
2021/08/31 02:37:37;;;;;;;;;10.50;10.00;;;;;-147.91;100.00;58652.34;5035109;28;46795;-81
2021/08/31 02:40:04;;;;;;;;;9.00;6.50;;;;;-147.91;100.00;58652.34;5031588;28;46397;-81
2021/08/31 02:42:30;;;;;;;;;9.00;7.25;;;;;-147.91;100.00;58652.34;5032181;28;45617;-81
2021/08/31 02:44:56;;;;;;;;;9.25;7.00;;;;;-147.91;100.00;58652.34;5034925;28;46185;-81
2021/08/31 02:47:21;;;;;;;;;12.75;8.50;;;;;-147.91;100.00;58652.34;5036151;28;45620;-81
2021/08/31 02:49:47;;;;;;;;;8.25;8.00;;;;;-147.91;100.00;58652.34;5036483;28;45519;-81
2021/08/31 02:52:13;;;;;;;;;9.50;8.50;;;;;-147.91;100.00;58652.34;5054490;28;45572;-81
2021/08/31 02:54:38;;;;;;;;;7.75;7.75;;;;;-147.91;100.00;58652.34;5034305;28;48464;-81
2021/08/31 02:57:04;;;;;;;;;8.75;8.50;;;;;-147.91;100.00;58652.34;5039427;28;45472;-81
2021/08/31 02:59:30;;;;;;;;;10.00;7.00;;;;;-147.91;100.00;58652.34;5036770;28;45796;-81
2021/08/31 03:02:05;;;;;;;;;12.25;9.75;;;;;-147.91;100.00;58652.34;5040506;28;45772;-81
2021/08/31 03:04:32;;;;;;;;;14.25;9.75;;;;;-147.91;100.00;58652.34;5040301;28;46197;-81
2021/08/31 03:06:57;;;;;;;;;10.00;7.50;;;;;-147.91;100.00;58652.34;5035888;28;45625;-81
2021/08/31 03:09:22;;;;;;;;;10.00;8.00;;;;;-147.91;100.00;58652.34;5039691;28;45655;-81
2021/08/31 03:11:48;;;;;;;;;10.75;10.75;;;;;-147.91;100.00;58652.34;5037813;28;45496;-81
2021/08/31 03:14:18;;;;;;;;;12.50;10.00;;;;;-147.91;100.00;58652.34;5039441;28;45793;-81
2021/08/31 03:16:44;;;;;;;;;10.75;8.75;;;;;-147.91;100.00;58652.34;5042832;28;45599;-80
2021/08/31 03:19:11;;;;;;;;;11.50;10.00;;;;;-147.91;100.00;58652.34;5033952;28;45490;-81
2021/08/31 03:21:36;;;;;;;;;9.75;9.75;;;;;-147.91;100.00;58652.34;5033309;28;45955;-81
2021/08/31 03:24:02;;;;;;;;;8.25;8.25;;;;;-147.91;100.00;58652.34;5043171;28;45525;-81
2021/08/31 03:26:27;;;;;;;;;10.00;8.75;;;;;-147.91;100.00;58652.34;5035651;28;45981;-82
2021/08/31 03:28:53;;;;;;;;;9.75;8.75;;;;;-147.91;100.00;58652.34;5038939;28;46815;-81
2021/08/31 03:31:18;;;;;;;;;12.00;9.00;;;;;-147.91;100.00;58652.34;5038444;28;46076;-81
2021/08/31 03:33:43;;;;;;;;;14.25;9.00;;;;;-147.91;100.00;58652.34;5035643;28;45592;-80
2021/08/31 03:36:10;;;;;;;;;10.50;8.00;;;;;-147.91;100.00;58652.34;5036488;28;45540;-81
2021/08/31 03:38:35;;;;;;;;;13.50;10.00;;;;;-147.91;100.00;58652.34;5037655;28;45584;-82
2021/08/31 03:41:00;;;;;;;;;14.00;10.75;;;;;-147.91;100.00;58652.34;5050950;28;45635;-81
2021/08/31 03:43:26;;;;;;;;;13.00;10.00;;;;;-147.91;100.00;58652.34;5035519;28;45828;-81
2021/08/31 03:45:51;;;;;;;;;12.50;8.50;;;;;-147.91;100.00;58652.34;5033284;28;45623;-80
2021/08/31 03:48:17;;;;;;;;;12.00;10.25;;;;;-147.91;100.00;58652.34;5037504;28;45658;-81
2021/08/31 03:50:42;;;;;;;;;10.25;10.00;;;;;-147.91;100.00;58652.34;5034865;28;45586;-80
2021/08/31 03:53:07;;;;;;;;;12.50;11.00;;;;;-147.91;100.00;58652.34;5035316;28;46337;-81
2021/08/31 03:55:33;;;;;;;;;13.00;8.50;;;;;-147.91;100.00;58652.34;5040761;28;45903;-81
2021/08/31 03:57:58;;;;;;;;;19.25;10.00;;;;;-147.91;100.00;58652.34;5033671;28;45845;-81
2021/08/31 04:00:24;;;;;;;;;17.75;12.00;;;;;-147.91;100.00;58652.34;5035026;28;45555;-81
2021/08/31 04:02:49;;;;;;;;;10.25;8.50;;;;;-147.91;100.00;58652.34;5033859;28;45665;-81
2021/08/31 04:05:14;;;;;;;;;16.50;13.00;;;;;-147.91;100.00;58652.34;5036395;28;45675;-81
2021/08/31 04:07:40;;;;;;;;;13.00;10.00;;;;;-147.91;100.00;58652.34;5043802;28;46654;-81
2021/08/31 04:10:06;;;;;;;;;12.00;10.00;;;;;-147.91;100.00;58652.34;5033662;28;45726;-81
2021/08/31 04:12:31;;;;;;;;;13.50;11.75;;;;;-147.91;100.00;58652.34;5033967;28;45891;-81
2021/08/31 04:14:57;;;;;;;;;14.25;11.00;;;;;-147.91;100.00;58652.34;5036475;28;45575;-81
2021/08/31 04:17:22;;;;;;;;;12.50;9.75;;;;;-147.91;100.00;58652.34;5034224;28;46030;-81
2021/08/31 04:19:47;;;;;;;;;17.25;11.00;;;;;-147.91;100.00;58652.34;5038865;28;45460;-80
2021/08/31 04:22:13;;;;;;;;;12.25;9.50;;;;;-147.91;100.00;58652.34;5041823;28;46533;-80
2021/08/31 04:24:38;;;;;;;;;11.50;9.50;;;;;-147.91;100.00;58652.34;5036650;28;46290;-81
2021/08/31 04:27:04;;;;;;;;;16.50;12.00;;;;;-147.91;100.00;58652.34;5042689;28;45600;-80
2021/08/31 04:29:29;;;;;;;;;10.75;10.00;;;;;-147.91;100.00;58652.34;5030797;28;45684;-81
2021/08/31 04:31:55;;;;;;;;;12.75;11.75;;;;;-147.91;100.00;58652.34;5034963;28;46483;-81
2021/08/31 04:34:20;;;;;;;;;15.50;12.00;;;;;-147.91;100.00;58652.34;5043919;28;45573;-81
2021/08/31 04:36:45;;;;;;;;;14.00;13.50;;;;;-147.91;100.00;58652.34;5034289;28;45686;-80
2021/08/31 04:39:11;;;;;;;;;15.00;13.50;;;;;-147.91;100.00;58652.34;5032556;28;46244;-82
2021/08/31 04:41:36;;;;;;;;;18.25;11.75;;;;;-147.91;100.00;58652.34;5034865;28;46163;-80
2021/08/31 04:44:02;;;;;;;;;14.25;12.50;;;;;-147.91;100.00;58652.34;5033895;28;45547;-81
2021/08/31 04:46:27;;;;;;;;;16.00;14.00;;;;;-147.91;100.00;58652.34;5034018;28;45361;-80
2021/08/31 04:48:52;;;;;;;;;21.00;17.75;;;;;-147.91;100.00;58652.34;5028562;28;45520;-81
2021/08/31 04:51:18;;;;;;;;;15.75;14.25;;;;;-147.91;100.00;58652.34;5041831;28;45512;-80
2021/08/31 04:53:43;;;;;;;;;20.50;14.25;;;;;-147.91;100.00;58652.34;5034435;28;45785;-81
2021/08/31 04:56:08;;;;;;;;;19.50;12.25;;;;;-147.91;100.00;58652.34;5034254;28;46751;-81
2021/08/31 04:58:34;;;;;;;;;25.25;15.75;;;;;-147.91;100.00;58652.34;5034858;28;45521;-81
2021/08/31 05:00:59;;;;;;;;;20.75;17.25;;;;;-147.91;100.00;58652.34;5037568;28;45598;-81
2021/08/31 05:03:25;;;;;;;;;15.75;14.50;;;;;-147.91;100.00;58652.34;5036970;28;45773;-81
2021/08/31 05:05:50;;;;;;;;;17.50;16.00;;;;;-147.91;100.00;58652.34;5041794;28;45671;-81
2021/08/31 05:08:16;;;;;;;;;18.00;15.25;;;;;-147.91;100.00;58652.34;5029721;28;45520;-80
2021/08/31 05:10:41;;;;;;;;;18.75;14.75;;;;;-147.91;100.00;58652.34;5035006;28;46101;-85
2021/08/31 05:13:06;;;;;;;;;18.00;16.00;;;;;-147.91;100.00;58652.34;5028183;28;45845;-81
2021/08/31 05:15:32;;;;;;;;;23.25;16.25;;;;;-147.91;100.00;58652.34;5033871;28;45700;-83
2021/08/31 05:17:59;;;;;;;;;14.50;14.50;;;;;-147.91;100.00;58652.34;5044749;28;46477;-85
2021/08/31 05:20:25;;;;;;;;;17.75;14.00;;;;;-147.91;100.00;58652.34;5027587;28;46073;-82
2021/08/31 05:22:51;;;;;;;;;15.50;13.75;;;;;-147.91;100.00;58652.34;5043311;28;45520;-82
2021/08/31 05:25:17;;;;;;;;;18.75;15.00;;;;;-147.91;100.00;58652.34;5041509;28;45942;-82
2021/08/31 05:27:43;;;;;;;;;15.75;14.25;;;;;-147.91;100.00;58652.34;5037552;28;45545;-81
2021/08/31 05:56:05;;;;;;;;;20.50;18.50;;;;;-147.91;100.00;58652.34;5773184;22;45323;-94
2021/08/31 05:58:31;;;;;;;;;15.25;15.25;;;;;-147.91;100.00;58652.34;5056991;28;45486;-96
2021/08/31 06:00:56;;;;;;;;;19.00;15.50;;;;;-147.91;100.00;58652.34;5058476;28;45489;-95
2021/08/31 06:03:21;;;;;;;;;23.50;20.25;;;;;-147.91;100.00;58652.34;5069030;28;45473;-96
2021/08/31 06:16:08;;;;;;;;;17.25;15.00;;;;;-147.91;100.00;58652.34;5918237;22;45543;-83
2021/08/31 06:18:33;;;;;;;;;18.00;14.00;;;;;-147.91;100.00;58652.34;5042207;28;45532;-80
2021/08/31 06:20:58;;;;;;;;;20.25;19.50;;;;;-147.91;100.00;58652.34;5048602;28;46585;-80
2021/08/31 06:23:24;;;;;;;;;20.25;14.50;;;;;-147.91;100.00;58652.34;5045743;28;45751;-80
2021/08/31 06:25:49;;;;;;;;;23.75;18.50;;;;;-147.91;100.00;58652.34;5048831;28;45557;-82
2021/08/31 06:28:15;;;;;;;;;25.25;19.00;;;;;-147.91;100.00;58652.34;5043681;28;47000;-80
2021/08/31 06:30:40;;;;;;;;;23.50;19.75;;;;;-147.91;100.00;58652.34;5042789;28;46382;-80
2021/08/31 06:33:06;;;;;;;;;24.00;19.00;;;;;-147.91;100.00;58652.34;5044946;28;45749;-81
2021/08/31 06:35:31;;;;;;;;;29.25;19.50;;;;;-147.91;100.00;58652.34;5046137;28;45555;-80
2021/08/31 06:37:56;;;;;;;;;24.50;21.00;;;;;-147.91;100.00;58652.34;5046508;28;45583;-81
2021/08/31 06:40:22;;;;;;;;;25.00;19.00;;;;;-147.91;100.00;58652.34;5044298;28;45536;-80
2021/08/31 07:05:53;;;;;;;;;28.25;23.25;;;;;-147.91;100.00;58652.34;5766794;22;46011;-80
2021/08/31 07:08:18;;;;;;;;;30.75;24.75;;;;;-147.91;100.00;58652.34;5038806;28;45544;-80
2021/08/31 07:10:43;;;;;;;;;27.25;23.50;;;;;-147.91;100.00;58652.34;5044986;28;45893;-81
2021/08/31 07:13:10;;;;;;;;;28.00;23.00;;;;;-147.91;100.00;58652.34;5038165;28;47248;-81
2021/08/31 07:15:36;;;;;;;;;27.50;20.25;;;;;-147.91;100.00;58652.34;5042296;28;45552;-80
2021/08/31 07:18:02;;;;;;;;;21.50;20.25;;;;;-147.91;100.00;58652.34;5046996;28;45536;-80
2021/08/31 07:20:27;;;;;;;;;24.75;20.75;;;;;-147.91;100.00;58652.34;5045302;28;45516;-80
2021/08/31 07:22:53;;;;;;;;;26.75;25.75;;;;;-147.91;100.00;58652.34;5046282;28;45708;-80
2021/08/31 07:25:19;;;;;;;;;29.00;23.00;;;;;-147.91;100.00;58652.34;5042416;28;45616;-80
2021/08/31 07:27:45;;;;;;;;;20.75;19.00;;;;;-147.91;100.00;58652.34;5039512;28;45580;-81
2021/08/31 07:30:10;;;;;;;;;26.25;24.00;;;;;-147.91;100.00;58652.34;5024783;28;45889;-80
2021/08/31 07:32:36;;;;;;;;;28.75;22.00;;;;;-147.91;100.00;58652.34;5041880;28;46275;-80
2021/08/31 07:35:01;;;;;;;;;24.00;19.75;;;;;-147.91;100.00;58652.34;5025165;28;45549;-80
2021/08/31 07:37:27;;;;;;;;;27.50;19.25;;;;;-147.91;100.00;58652.34;5027708;28;45784;-80
2021/08/31 07:39:52;;;;;;;;;30.50;22.50;;;;;-147.91;100.00;58652.34;5041075;28;45885;-80
2021/08/31 07:42:17;;;;;;;;;33.00;24.25;;;;;-147.91;100.00;58652.34;5021720;28;46448;-80
2021/08/31 07:44:43;;;;;;;;;24.00;21.50;;;;;-147.91;100.00;58652.34;5043226;28;45726;-80
2021/08/31 07:47:09;;;;;;;;;25.50;22.50;;;;;-147.91;100.00;58652.34;5040727;28;46033;-79
2021/08/31 07:49:34;;;;;;;;;31.00;26.50;;;;;-147.91;100.00;58652.34;5046939;28;46099;-81
2021/08/31 07:52:00;;;;;;;;;25.50;22.75;;;;;-147.91;100.00;58652.34;5023263;28;48473;-81
2021/08/31 07:54:26;;;;;;;;;28.75;23.75;;;;;-147.91;100.00;58652.34;5046645;28;45581;-80
2021/08/31 07:56:51;;;;;;;;;27.50;22.50;;;;;-147.91;100.00;58652.34;5045509;28;45583;-79
2021/08/31 07:59:17;;;;;;;;;29.50;23.75;;;;;-147.91;100.00;58652.34;5039872;28;47659;-81
2021/08/31 08:01:42;;;;;;;;;31.50;22.75;;;;;-147.91;100.00;58652.34;5045268;28;45597;-80
2021/08/31 08:04:07;;;;;;;;;27.75;21.00;;;;;-147.91;100.00;58652.34;5041331;28;45571;-81
2021/08/31 08:06:33;;;;;;;;;21.00;18.75;;;;;-147.91;100.00;58652.34;5040643;28;45714;-82
2021/08/31 08:08:58;;;;;;;;;29.25;22.25;;;;;-147.91;100.00;58652.34;5046840;28;47801;-80
2021/08/31 08:11:24;;;;;;;;;25.50;21.25;;;;;-147.91;100.00;58652.34;5041831;28;46367;-81
2021/08/31 08:13:50;;;;;;;;;26.75;22.75;;;;;-147.91;100.00;58652.34;5044706;28;45665;-79
2021/08/31 08:16:15;;;;;;;;;27.75;23.25;;;;;-147.91;100.00;58652.34;5012714;28;45564;-82
2021/08/31 08:18:40;;;;;;;;;24.00;20.50;;;;;-147.91;100.00;58652.34;5042883;28;45587;-82
2021/08/31 08:21:06;;;;;;;;;26.50;21.25;;;;;-147.91;100.00;58652.34;5015278;28;48207;-82
2021/08/31 08:23:31;;;;;;;;;28.00;24.00;;;;;-147.91;100.00;58652.34;5039558;28;45809;-83
2021/08/31 08:25:57;;;;;;;;;22.50;20.50;;;;;-147.91;100.00;58652.34;5045935;28;45795;-83
2021/08/31 08:28:24;;;;;;;;;22.50;20.75;;;;;-147.91;100.00;58652.34;5042218;28;45756;-81
2021/08/31 08:30:51;;;;;;;;;24.00;20.75;;;;;-147.91;100.00;58652.34;5035621;28;48547;-82
2021/08/31 08:33:17;;;;;;;;;24.00;19.00;;;;;-147.91;100.00;58652.34;5043115;28;47451;-82
2021/08/31 08:35:47;;;;;;;;;24.25;21.00;;;;;-147.91;100.00;58652.34;5024649;28;45690;-82
2021/08/31 08:38:12;;;;;;;;;23.50;20.75;;;;;-147.91;100.00;58652.34;5038109;28;45463;-81
2021/08/31 08:40:38;;;;;;;;;19.25;17.00;;;;;-147.91;100.00;58652.34;5048417;28;46814;-80
2021/08/31 08:43:08;;;;;;;;;24.00;20.25;;;;;-147.91;100.00;58652.34;5037580;28;45606;-81
2021/08/31 08:45:34;;;;;;;;;29.75;25.75;;;;;-147.91;100.00;58652.34;5040100;28;45467;-81
2021/08/31 08:48:14;;;;;;;;;25.50;21.25;;;;;-147.91;100.00;58652.34;5016045;28;50536;-81
2021/08/31 08:50:42;;;;;;;;;23.25;19.75;;;;;-147.91;100.00;58652.34;5038796;28;45807;-81
2021/08/31 08:53:11;;;;;;;;;20.25;18.75;;;;;-147.91;100.00;58652.34;5040815;28;45805;-80
2021/08/31 08:55:36;;;;;;;;;19.00;16.75;;;;;-147.91;100.00;58652.34;5047763;28;45600;-82
2021/08/31 08:58:05;;;;;;;;;27.50;21.75;;;;;-147.91;100.00;58652.34;5019701;28;45704;-81
2021/08/31 09:00:55;;;;;;;;;22.25;19.00;;;;;-147.91;100.00;58652.34;5035067;28;46308;-81
2021/08/31 09:03:23;;;;;;;;;24.00;20.00;;;;;-147.91;100.00;58652.34;5022544;28;46575;-82
2021/08/31 09:06:06;;;;;;;;;19.50;18.75;;;;;-147.91;100.00;58652.34;5032554;28;45641;-81
2021/08/31 09:08:32;;;;;;;;;17.50;16.50;;;;;-147.91;100.00;58652.34;5028799;28;46628;-82
2021/08/31 09:10:57;;;;;;;;;21.75;19.25;;;;;-147.91;100.00;58652.34;5035719;28;45839;-81
2021/08/31 09:13:23;;;;;;;;;21.50;18.00;;;;;-147.91;100.00;58652.34;5034553;28;45623;-81
2021/08/31 09:15:48;;;;;;;;;22.00;19.00;;;;;-147.91;100.00;58652.34;5030990;28;45923;-81
2021/08/31 09:18:17;;;;;;;;;20.50;19.25;;;;;-147.91;100.00;58652.34;5037038;28;48072;-81
2021/08/31 09:20:55;;;;;;;;;17.75;17.50;;;;;-147.91;100.00;58652.34;5035953;28;46359;-82
2021/08/31 09:23:24;;;;;;;;;21.75;17.75;;;;;-147.91;100.00;58652.34;5013929;28;47138;-81
2021/08/31 09:25:55;;;;;;;;;23.50;22.50;;;;;-147.91;100.00;58652.34;5034905;28;45530;-81
2021/08/31 09:49:48;;;;;;;;;34.25;27.25;;;;;-147.91;100.00;58652.34;4789968;25;46274;-83
2021/08/31 09:52:15;;;;;;;;;32.25;26.75;;;;;-147.91;100.00;58652.34;5040942;27;45996;-82
2021/08/31 09:54:47;;;;;;;;;27.50;23.50;;;;;-147.91;100.00;58652.34;5044978;27;45890;-82
2021/08/31 09:57:37;;;;;;;;;32.25;26.25;;;;;-147.91;100.00;58652.34;5047806;27;53842;-81
2021/08/31 10:00:09;;;;;;;;;27.00;24.25;;;;;-147.91;100.00;58652.34;5054679;28;47161;-81
2021/08/31 10:02:34;;;;;;;;;31.50;29.00;;;;;-147.91;100.00;58652.34;5053078;27;48037;-81
2021/08/31 10:05:00;;;;;;;;;31.00;25.75;;;;;-147.91;100.00;58652.34;5046471;27;45867;-83
2021/08/31 10:07:26;;;;;;;;;25.00;21.25;;;;;-147.91;100.00;58652.34;5049446;27;45871;-82
2021/08/31 10:09:54;;;;;;;;;28.00;23.25;;;;;-147.91;100.00;58652.34;5046156;27;45692;-83
2021/08/31 10:12:22;;;;;;;;;34.00;29.50;;;;;-147.91;100.00;58652.34;5037357;28;47184;-82
2021/08/31 10:14:52;;;;;;;;;27.50;26.50;;;;;-147.91;100.00;58652.34;5033949;28;45962;-83
2021/08/31 10:17:20;;;;;;;;;32.50;26.25;;;;;-147.91;100.00;58652.34;5047119;28;45506;-83
2021/08/31 10:19:48;;;;;;;;;31.25;26.00;;;;;-147.91;100.00;58652.34;5049459;27;46375;-83
2021/08/31 10:22:15;;;;;;;;;18.50;16.50;;;;;-147.91;100.00;58652.34;5036679;28;48246;-82
2021/08/31 10:24:46;;;;;;;;;26.75;25.50;;;;;-147.91;100.00;58652.34;5050800;27;47409;-84
2021/08/31 10:27:31;;;;;;;;;30.50;27.00;;;;;-147.91;100.00;58652.34;5048637;27;45797;-82
2021/08/31 10:30:14;;;;;;;;;25.75;21.75;;;;;-147.91;100.00;58652.34;5051053;27;45941;-83
2021/08/31 10:32:41;;;;;;;;;30.75;27.50;;;;;-147.91;100.00;58652.34;5029214;27;46501;-83
2021/08/31 10:35:07;;;;;;;;;30.75;24.75;;;;;-147.91;100.00;58652.34;5046933;27;47044;-82
2021/08/31 10:37:48;;;;;;;;;37.75;31.25;;;;;-147.91;100.00;58652.34;5044120;27;51634;-82
2021/08/31 10:40:36;;;;;;;;;43.75;36.00;;;;;-147.91;100.00;58652.34;5045779;27;45493;-80
2021/08/31 10:43:04;;;;;;;;;34.75;29.50;;;;;-147.91;100.00;58652.34;5046993;27;46324;-80
2021/08/31 10:45:33;;;;;;;;;28.75;23.50;;;;;-147.91;100.00;58652.34;5049805;27;49280;-83
2021/08/31 10:48:01;;;;;;;;;28.25;23.75;;;;;-147.91;100.00;58652.34;5054117;27;45591;-81
2021/08/31 10:50:30;;;;;;;;;29.00;26.25;;;;;-147.91;100.00;58652.34;5053550;28;45592;-83
2021/08/31 10:53:03;;;;;;;;;29.75;25.50;;;;;-147.91;100.00;58652.34;5038543;28;47157;-83
2021/08/31 10:55:29;;;;;;;;;33.75;32.75;;;;;-147.91;100.00;58652.34;5056910;27;45776;-82
2021/08/31 10:57:59;;;;;;;;;28.75;24.25;;;;;-147.91;100.00;58652.34;5052190;28;45808;-79
2021/08/31 11:00:25;;;;;;;;;26.75;24.00;;;;;-147.91;100.00;58652.34;5058617;27;45493;-81
2021/08/31 11:02:59;;;;;;;;;22.50;20.00;;;;;-147.91;100.00;58652.34;5031643;28;47955;-82
2021/08/31 11:05:34;;;;;;;;;18.75;18.00;;;;;-147.91;100.00;58652.34;5058741;28;48432;-81
2021/08/31 11:08:02;;;;;;;;;20.00;18.75;;;;;-147.91;100.00;58652.34;5063268;27;45537;-83
2021/08/31 11:10:30;;;;;;;;;24.00;21.50;;;;;-147.91;100.00;58652.34;5046293;28;45838;-82
2021/08/31 11:13:21;;;;;;;;;20.50;19.25;;;;;-147.91;100.00;58652.34;5051061;28;47404;-84
2021/08/31 11:15:49;;;;;;;;;19.00;17.50;;;;;-147.91;100.00;58652.34;5062190;27;49221;-81
2021/08/31 11:18:19;;;;;;;;;21.00;17.75;;;;;-147.91;100.00;58652.34;5038453;28;45554;-82
2021/08/31 11:20:45;;;;;;;;;23.50;18.00;;;;;-147.91;100.00;58652.34;5062665;27;45545;-82
2021/08/31 11:23:18;;;;;;;;;24.00;18.75;;;;;-147.91;100.00;58652.34;5061610;27;45587;-82
2021/08/31 11:25:54;;;;;;;;;20.75;17.75;;;;;-147.91;100.00;58652.34;5047615;28;46160;-81
2021/08/31 11:28:21;;;;;;;;;32.00;25.00;;;;;-147.91;100.00;58652.34;5058339;27;45743;-81
2021/08/31 11:30:55;;;;;;;;;39.25;33.00;;;;;-147.91;100.00;58652.34;5063520;27;45634;-82
2021/08/31 11:33:53;;;;;;;;;43.50;36.25;;;;;-147.91;100.00;58652.34;5066676;27;45485;-81
2021/08/31 11:36:22;;;;;;;;;39.00;33.00;;;;;-147.91;100.00;58652.34;5031754;28;46333;-82
2021/08/31 11:46:56;;;;;;;;;41.50;31.25;;;;;-147.91;100.00;58652.34;5659136;22;46032;-82
2021/08/31 11:49:29;;;;;;;;;39.75;34.25;;;;;-147.91;100.00;58652.34;5043562;27;45597;-82
2021/08/31 11:51:54;;;;;;;;;45.50;34.75;;;;;-147.91;100.00;58652.34;5107826;22;45578;-96
2021/08/31 11:57:04;;;;;;;;;27.75;26.00;;;;;-147.91;100.00;58652.34;5378656;22;46019;-96
2021/08/31 11:59:51;;;;;;;;;30.75;25.75;;;;;-147.91;100.00;58652.34;5097459;27;44732;-96
2021/08/31 12:02:28;;;;;;;;;27.00;26.00;;;;;-147.91;100.00;58652.34;5082232;22;45503;-83
2021/08/31 12:04:54;;;;;;;;;31.75;28.00;;;;;-147.91;100.00;58652.34;5059752;28;45573;-82
2021/08/31 12:07:21;;;;;;;;;29.75;25.75;;;;;-147.91;100.00;58652.34;5055187;28;45490;-82
2021/08/31 12:09:50;;;;;;;;;21.00;18.50;;;;;-147.91;100.00;58652.34;5059095;28;45525;-82
2021/08/31 12:12:16;;;;;;;;;20.25;17.00;;;;;-147.91;100.00;58652.34;5070514;28;45568;-82
2021/08/31 12:14:46;;;;;;;;;19.50;19.25;;;;;-147.91;100.00;58652.34;5030520;28;46295;-83
2021/08/31 12:17:11;;;;;;;;;51.75;41.50;;;;;-147.91;100.00;58652.34;5050338;27;45577;-82
2021/08/31 12:19:38;;;;;;;;;47.50;35.00;;;;;-147.91;100.00;58652.34;5052047;28;45498;-83
2021/08/31 12:22:10;;;;;;;;;47.50;37.50;;;;;-147.91;100.00;58652.34;5047611;28;45651;-82
2021/08/31 12:24:37;;;;;;;;;33.25;29.50;;;;;-147.91;100.00;58652.34;5048249;27;46723;-83
2021/08/31 12:27:09;;;;;;;;;31.50;26.00;;;;;-147.91;100.00;58652.34;5058184;27;45824;-83
2021/08/31 12:29:44;;;;;;;;;33.50;28.50;;;;;-147.91;100.00;58652.34;5046574;27;45555;-83